Hovedside
METAR-TAF:

METAR-TAF

Lufthavner :

Ivalo lufthavn

Ivalo, Finland

breddegrad: 68-37N, lengdegrad: 027-25E, høyde over havet: 147 m

Gjeldene værobservasjon

Denne rapporten ble laget for 19 minutter siden, klokken 15:20 UTC
Vind 11 kt fra Nord, skiftende mellom Nordvest og Nord-nordøst
Temperatur 18°C
Luftfuktighet 52%
Trykk 1010 hPa
Sikt 10 km eller mer
Få skyer i en høyde av 4400 ft

METAR: EFIV 241520Z AUTO 35011KT 320V020 9999 FEW044 18/08 Q1010

Tid: 18:39 (15:39 UTC)

Varsel

Denne rapporten ble laget for 1 time og 5 minutter siden, klokken 14:34 UTC
Varsel gyldig fra 24. klokken 15 UTC til 24. klokken 24 UTC
Vind 9 kt fra Nordvest
Sikt 10 km eller mer
Få skyer i en høyde av 4500 ft
Midlertidig
fra 24. klokken 15 UTC til 24. klokken 19 UTC
Få skyer i en høyde av 4500 ft, Bygeskyer.
Midlertidig
fra 24. klokken 20 UTC til 24. klokken 24 UTC
Brutte skyer i en høyde av 1300 ft

TAF: EFIV 241434Z 2415/2424 32009KT 9999 FEW045 TEMPO 2415/2419 FEW045CB TEMPO 2420/2424 BKN013

Værobservasjoner og værvarsel for over 4000 flyplasser (METAR- og TAF-rapporter).

Tilgjengelige stasjoner er representert av de røde og gule prikkene på kartet.

Hold musepekeren over prikken for å se navnet på stasjonen.

Klikk så for å se værobservasjoner og -varsler.

For å forandre kartet kan du klikke på den grønne knappen med svart kryss for å zoome inn, på den grønne knappen med strek for å zoome ut, eller på de grønne pilene for å se tilstøtende kart.


METAR-TAF: